sensor_id;sensor_type;location;lat;lon;timestamp;temperature;humidity
76168;DHT22;64927;48.214;16.378;2023-10-19T00:01:20;11.60;63.60
76168;DHT22;64927;48.214;16.378;2023-10-19T00:03:49;11.60;63.60
76168;DHT22;64927;48.214;16.378;2023-10-19T00:06:15;11.60;63.50
76168;DHT22;64927;48.214;16.378;2023-10-19T00:08:47;11.60;63.40
76168;DHT22;64927;48.214;16.378;2023-10-19T00:11:13;11.60;63.50
76168;DHT22;64927;48.214;16.378;2023-10-19T00:13:47;11.70;64.30
76168;DHT22;64927;48.214;16.378;2023-10-19T00:16:16;11.70;63.40
76168;DHT22;64927;48.214;16.378;2023-10-19T00:18:48;11.70;63.50
76168;DHT22;64927;48.214;16.378;2023-10-19T00:21:15;11.70;63.50
76168;DHT22;64927;48.214;16.378;2023-10-19T00:23:56;11.70;63.70
76168;DHT22;64927;48.214;16.378;2023-10-19T00:26:25;11.60;63.80
76168;DHT22;64927;48.214;16.378;2023-10-19T00:28:53;11.70;63.60
76168;DHT22;64927;48.214;16.378;2023-10-19T00:31:21;11.80;63.70
76168;DHT22;64927;48.214;16.378;2023-10-19T00:33:47;11.80;63.60
76168;DHT22;64927;48.214;16.378;2023-10-19T00:36:13;11.70;63.70
76168;DHT22;64927;48.214;16.378;2023-10-19T00:38:39;11.80;63.60
76168;DHT22;64927;48.214;16.378;2023-10-19T00:41:09;11.80;64.10
76168;DHT22;64927;48.214;16.378;2023-10-19T00:43:36;11.80;63.90
76168;DHT22;64927;48.214;16.378;2023-10-19T00:46:04;11.90;63.90
76168;DHT22;64927;48.214;16.378;2023-10-19T00:48:51;11.80;63.80
76168;DHT22;64927;48.214;16.378;2023-10-19T00:51:23;11.90;64.00
76168;DHT22;64927;48.214;16.378;2023-10-19T00:54:03;11.90;63.80
76168;DHT22;64927;48.214;16.378;2023-10-19T00:56:45;11.90;63.80
76168;DHT22;64927;48.214;16.378;2023-10-19T00:59:14;12.00;63.70
76168;DHT22;64927;48.214;16.378;2023-10-19T01:01:53;12.00;63.70
76168;DHT22;64927;48.214;16.378;2023-10-19T01:04:52;12.00;63.60
76168;DHT22;64927;48.214;16.378;2023-10-19T01:07:25;12.10;63.40
76168;DHT22;64927;48.214;16.378;2023-10-19T01:09:51;12.00;63.40
76168;DHT22;64927;48.214;16.378;2023-10-19T01:12:19;12.00;63.60
76168;DHT22;64927;48.214;16.378;2023-10-19T01:15:07;12.10;63.50
76168;DHT22;64927;48.214;16.378;2023-10-19T01:17:36;12.10;63.40
76168;DHT22;64927;48.214;16.378;2023-10-19T01:20:14;12.10;63.30
76168;DHT22;64927;48.214;16.378;2023-10-19T01:25:20;12.20;63.40
76168;DHT22;64927;48.214;16.378;2023-10-19T01:27:52;12.20;63.20
76168;DHT22;64927;48.214;16.378;2023-10-19T01:30:23;12.20;63.20
76168;DHT22;64927;48.214;16.378;2023-10-19T01:32:52;12.30;63.00
76168;DHT22;64927;48.214;16.378;2023-10-19T01:35:18;12.30;62.90
76168;DHT22;64927;48.214;16.378;2023-10-19T01:37:46;12.30;63.10
76168;DHT22;64927;48.214;16.378;2023-10-19T01:40:11;12.20;63.20
76168;DHT22;64927;48.214;16.378;2023-10-19T01:42:41;12.20;63.50
76168;DHT22;64927;48.214;16.378;2023-10-19T01:45:09;12.20;63.50
76168;DHT22;64927;48.214;16.378;2023-10-19T01:47:37;12.30;63.50
76168;DHT22;64927;48.214;16.378;2023-10-19T01:50:03;12.40;63.40
76168;DHT22;64927;48.214;16.378;2023-10-19T01:52:31;12.30;63.30
76168;DHT22;64927;48.214;16.378;2023-10-19T01:54:56;12.40;63.50
76168;DHT22;64927;48.214;16.378;2023-10-19T01:57:29;12.40;63.50
76168;DHT22;64927;48.214;16.378;2023-10-19T01:59:54;12.40;63.70
76168;DHT22;64927;48.214;16.378;2023-10-19T02:02:21;12.30;64.20
76168;DHT22;64927;48.214;16.378;2023-10-19T02:04:47;12.30;64.60
76168;DHT22;64927;48.214;16.378;2023-10-19T02:07:16;12.30;64.50
76168;DHT22;64927;48.214;16.378;2023-10-19T02:09:43;12.40;64.60
76168;DHT22;64927;48.214;16.378;2023-10-19T02:12:09;12.40;64.60
76168;DHT22;64927;48.214;16.378;2023-10-19T02:14:34;12.40;64.50
76168;DHT22;64927;48.214;16.378;2023-10-19T02:17:01;12.50;64.60
76168;DHT22;64927;48.214;16.378;2023-10-19T02:19:29;12.50;64.50
76168;DHT22;64927;48.214;16.378;2023-10-19T02:22:03;12.60;64.40
76168;DHT22;64927;48.214;16.378;2023-10-19T02:24:34;12.70;64.40
76168;DHT22;64927;48.214;16.378;2023-10-19T02:26:59;12.70;64.50
76168;DHT22;64927;48.214;16.378;2023-10-19T02:29:28;12.60;64.60
76168;DHT22;64927;48.214;16.378;2023-10-19T02:31:54;12.50;65.10
76168;DHT22;64927;48.214;16.378;2023-10-19T02:34:21;12.50;65.20
76168;DHT22;64927;48.214;16.378;2023-10-19T02:36:49;12.50;65.40
76168;DHT22;64927;48.214;16.378;2023-10-19T02:39:15;12.40;65.40
76168;DHT22;64927;48.214;16.378;2023-10-19T02:41:47;12.50;65.50
76168;DHT22;64927;48.214;16.378;2023-10-19T02:44:18;12.50;65.70
76168;DHT22;64927;48.214;16.378;2023-10-19T02:46:52;12.50;65.90
76168;DHT22;64927;48.214;16.378;2023-10-19T02:49:20;12.30;66.40
76168;DHT22;64927;48.214;16.378;2023-10-19T02:51:47;12.30;66.60
76168;DHT22;64927;48.214;16.378;2023-10-19T02:54:14;12.20;66.80
76168;DHT22;64927;48.214;16.378;2023-10-19T02:56:48;12.20;67.00
76168;DHT22;64927;48.214;16.378;2023-10-19T02:59:15;12.20;67.20
76168;DHT22;64927;48.214;16.378;2023-10-19T03:01:44;12.10;67.50
76168;DHT22;64927;48.214;16.378;2023-10-19T03:04:10;12.20;67.50
76168;DHT22;64927;48.214;16.378;2023-10-19T03:06:38;12.20;67.40
76168;DHT22;64927;48.214;16.378;2023-10-19T03:09:06;12.20;67.40
76168;DHT22;64927;48.214;16.378;2023-10-19T03:11:43;12.20;67.50
76168;DHT22;64927;48.214;16.378;2023-10-19T03:14:10;12.10;67.50
76168;DHT22;64927;48.214;16.378;2023-10-19T03:16:38;12.10;67.70
76168;DHT22;64927;48.214;16.378;2023-10-19T03:19:06;12.10;67.80
76168;DHT22;64927;48.214;16.378;2023-10-19T03:21:35;12.10;68.10
76168;DHT22;64927;48.214;16.378;2023-10-19T03:24:14;12.00;68.30
76168;DHT22;64927;48.214;16.378;2023-10-19T03:27:14;11.90;68.40
76168;DHT22;64927;48.214;16.378;2023-10-19T03:29:47;11.90;68.80
76168;DHT22;64927;48.214;16.378;2023-10-19T03:32:21;11.90;68.80
76168;DHT22;64927;48.214;16.378;2023-10-19T03:34:56;11.90;68.90
76168;DHT22;64927;48.214;16.378;2023-10-19T03:37:23;11.90;68.90
76168;DHT22;64927;48.214;16.378;2023-10-19T03:39:50;11.90;69.00
76168;DHT22;64927;48.214;16.378;2023-10-19T03:42:16;11.90;69.00
76168;DHT22;64927;48.214;16.378;2023-10-19T03:44:42;11.90;68.80
76168;DHT22;64927;48.214;16.378;2023-10-19T03:47:13;12.10;68.90
76168;DHT22;64927;48.214;16.378;2023-10-19T03:50:05;12.00;68.90
76168;DHT22;64927;48.214;16.378;2023-10-19T03:52:40;11.90;69.10
76168;DHT22;64927;48.214;16.378;2023-10-19T03:55:06;11.90;69.50
76168;DHT22;64927;48.214;16.378;2023-10-19T03:57:37;11.90;69.40
76168;DHT22;64927;48.214;16.378;2023-10-19T04:00:09;11.90;69.50
76168;DHT22;64927;48.214;16.378;2023-10-19T04:02:36;11.90;69.70
76168;DHT22;64927;48.214;16.378;2023-10-19T04:05:04;12.00;69.40
76168;DHT22;64927;48.214;16.378;2023-10-19T04:07:30;12.00;69.40
76168;DHT22;64927;48.214;16.378;2023-10-19T04:09:58;12.00;69.40
76168;DHT22;64927;48.214;16.378;2023-10-19T04:12:24;12.00;69.60
76168;DHT22;64927;48.214;16.378;2023-10-19T04:14:50;12.00;69.70
76168;DHT22;64927;48.214;16.378;2023-10-19T04:17:15;12.00;69.80
76168;DHT22;64927;48.214;16.378;2023-10-19T04:19:46;12.00;69.80
76168;DHT22;64927;48.214;16.378;2023-10-19T04:22:14;11.90;69.90
76168;DHT22;64927;48.214;16.378;2023-10-19T04:24:48;11.90;70.10
76168;DHT22;64927;48.214;16.378;2023-10-19T04:27:16;11.90;69.90
76168;DHT22;64927;48.214;16.378;2023-10-19T04:29:42;12.00;69.80
76168;DHT22;64927;48.214;16.378;2023-10-19T04:32:10;12.00;69.90
76168;DHT22;64927;48.214;16.378;2023-10-19T04:34:39;12.00;69.80
76168;DHT22;64927;48.214;16.378;2023-10-19T04:37:05;12.00;70.10
76168;DHT22;64927;48.214;16.378;2023-10-19T04:39:32;12.00;70.50
76168;DHT22;64927;48.214;16.378;2023-10-19T04:41:59;11.90;70.80
76168;DHT22;64927;48.214;16.378;2023-10-19T04:44:25;12.00;70.70
76168;DHT22;64927;48.214;16.378;2023-10-19T04:46:50;12.00;70.40
76168;DHT22;64927;48.214;16.378;2023-10-19T04:49:18;12.00;70.30
76168;DHT22;64927;48.214;16.378;2023-10-19T04:51:44;12.00;70.60
76168;DHT22;64927;48.214;16.378;2023-10-19T04:54:09;12.00;70.50
76168;DHT22;64927;48.214;16.378;2023-10-19T04:56:35;12.00;70.40
76168;DHT22;64927;48.214;16.378;2023-10-19T04:59:02;12.10;70.50
76168;DHT22;64927;48.214;16.378;2023-10-19T05:01:28;12.20;70.30
76168;DHT22;64927;48.214;16.378;2023-10-19T05:03:54;12.20;70.00
76168;DHT22;64927;48.214;16.378;2023-10-19T05:06:19;12.30;70.00
76168;DHT22;64927;48.214;16.378;2023-10-19T05:08:47;12.40;69.80
76168;DHT22;64927;48.214;16.378;2023-10-19T05:11:13;12.40;69.60
76168;DHT22;64927;48.214;16.378;2023-10-19T05:13:39;12.40;69.50
76168;DHT22;64927;48.214;16.378;2023-10-19T05:16:05;12.50;69.60
76168;DHT22;64927;48.214;16.378;2023-10-19T05:18:33;12.40;70.00
76168;DHT22;64927;48.214;16.378;2023-10-19T05:20:59;12.40;70.10
76168;DHT22;64927;48.214;16.378;2023-10-19T05:23:27;12.40;70.00
76168;DHT22;64927;48.214;16.378;2023-10-19T05:26:03;12.40;69.90
76168;DHT22;64927;48.214;16.378;2023-10-19T05:28:29;12.40;70.10
76168;DHT22;64927;48.214;16.378;2023-10-19T05:30:54;12.30;70.70
76168;DHT22;64927;48.214;16.378;2023-10-19T05:33:20;12.40;70.70
76168;DHT22;64927;48.214;16.378;2023-10-19T05:35:47;12.40;70.60
76168;DHT22;64927;48.214;16.378;2023-10-19T05:38:13;12.40;70.60
76168;DHT22;64927;48.214;16.378;2023-10-19T05:40:38;12.40;71.60
76168;DHT22;64927;48.214;16.378;2023-10-19T05:43:04;12.40;70.70
76168;DHT22;64927;48.214;16.378;2023-10-19T05:45:31;12.50;70.70
76168;DHT22;64927;48.214;16.378;2023-10-19T05:47:57;12.50;70.60
76168;DHT22;64927;48.214;16.378;2023-10-19T05:50:24;12.60;70.30
76168;DHT22;64927;48.214;16.378;2023-10-19T05:52:50;12.60;70.70
76168;DHT22;64927;48.214;16.378;2023-10-19T05:55:17;12.70;71.30
76168;DHT22;64927;48.214;16.378;2023-10-19T05:57:46;12.70;71.80
76168;DHT22;64927;48.214;16.378;2023-10-19T06:00:14;13.00;71.40
76168;DHT22;64927;48.214;16.378;2023-10-19T06:02:45;13.00;70.10
76168;DHT22;64927;48.214;16.378;2023-10-19T06:05:12;13.00;69.80
76168;DHT22;64927;48.214;16.378;2023-10-19T06:07:45;13.00;69.20
76168;DHT22;64927;48.214;16.378;2023-10-19T06:10:13;12.90;69.30
76168;DHT22;64927;48.214;16.378;2023-10-19T06:12:46;12.80;69.80
76168;DHT22;64927;48.214;16.378;2023-10-19T06:15:13;12.80;70.10
76168;DHT22;64927;48.214;16.378;2023-10-19T06:17:40;12.80;70.30
76168;DHT22;64927;48.214;16.378;2023-10-19T06:20:10;12.80;70.30
76168;DHT22;64927;48.214;16.378;2023-10-19T06:22:48;12.80;70.30
76168;DHT22;64927;48.214;16.378;2023-10-19T06:25:20;12.90;70.30
76168;DHT22;64927;48.214;16.378;2023-10-19T06:27:47;12.90;70.30
76168;DHT22;64927;48.214;16.378;2023-10-19T06:30:14;12.80;70.60
76168;DHT22;64927;48.214;16.378;2023-10-19T06:32:48;12.90;70.70
76168;DHT22;64927;48.214;16.378;2023-10-19T06:35:14;12.80;70.80
76168;DHT22;64927;48.214;16.378;2023-10-19T06:37:39;12.90;70.40
76168;DHT22;64927;48.214;16.378;2023-10-19T06:40:06;12.90;70.80
76168;DHT22;64927;48.214;16.378;2023-10-19T06:42:32;12.90;70.50
76168;DHT22;64927;48.214;16.378;2023-10-19T06:44:57;13.00;70.80
76168;DHT22;64927;48.214;16.378;2023-10-19T06:47:23;13.10;70.40
76168;DHT22;64927;48.214;16.378;2023-10-19T06:49:51;13.20;70.00
76168;DHT22;64927;48.214;16.378;2023-10-19T06:52:17;13.10;70.30
76168;DHT22;64927;48.214;16.378;2023-10-19T06:54:42;13.00;70.60
76168;DHT22;64927;48.214;16.378;2023-10-19T06:57:08;13.00;71.00
76168;DHT22;64927;48.214;16.378;2023-10-19T06:59:38;13.00;70.90
76168;DHT22;64927;48.214;16.378;2023-10-19T07:02:04;13.10;71.00
76168;DHT22;64927;48.214;16.378;2023-10-19T07:04:33;13.10;70.60
76168;DHT22;64927;48.214;16.378;2023-10-19T07:06:59;13.20;70.40
76168;DHT22;64927;48.214;16.378;2023-10-19T07:09:26;13.30;70.20
76168;DHT22;64927;48.214;16.378;2023-10-19T07:11:52;13.40;70.00
76168;DHT22;64927;48.214;16.378;2023-10-19T07:14:22;13.30;70.20
76168;DHT22;64927;48.214;16.378;2023-10-19T07:16:50;13.50;69.80
76168;DHT22;64927;48.214;16.378;2023-10-19T07:19:17;13.40;69.50
76168;DHT22;64927;48.214;16.378;2023-10-19T07:21:43;13.40;69.50
76168;DHT22;64927;48.214;16.378;2023-10-19T07:24:14;13.50;69.40
76168;DHT22;64927;48.214;16.378;2023-10-19T07:26:40;13.50;69.50
76168;DHT22;64927;48.214;16.378;2023-10-19T07:29:33;13.60;69.30
76168;DHT22;64927;48.214;16.378;2023-10-19T07:32:02;13.60;69.40
76168;DHT22;64927;48.214;16.378;2023-10-19T07:34:31;13.70;68.60
76168;DHT22;64927;48.214;16.378;2023-10-19T07:37:00;13.80;68.30
76168;DHT22;64927;48.214;16.378;2023-10-19T07:39:26;13.80;69.20
76168;DHT22;64927;48.214;16.378;2023-10-19T07:41:55;13.90;67.90
76168;DHT22;64927;48.214;16.378;2023-10-19T07:44:22;13.80;68.10
76168;DHT22;64927;48.214;16.378;2023-10-19T07:46:48;13.90;68.10
76168;DHT22;64927;48.214;16.378;2023-10-19T07:49:14;13.90;67.70
76168;DHT22;64927;48.214;16.378;2023-10-19T07:51:49;13.90;67.90
76168;DHT22;64927;48.214;16.378;2023-10-19T07:54:16;13.70;68.30
76168;DHT22;64927;48.214;16.378;2023-10-19T07:56:46;13.70;68.50
76168;DHT22;64927;48.214;16.378;2023-10-19T07:59:12;13.70;68.60
76168;DHT22;64927;48.214;16.378;2023-10-19T08:01:39;13.80;68.60
76168;DHT22;64927;48.214;16.378;2023-10-19T08:04:05;13.90;67.90
76168;DHT22;64927;48.214;16.378;2023-10-19T08:06:31;14.00;67.70
76168;DHT22;64927;48.214;16.378;2023-10-19T08:08:57;14.10;67.50
76168;DHT22;64927;48.214;16.378;2023-10-19T08:11:25;14.00;67.60
76168;DHT22;64927;48.214;16.378;2023-10-19T08:13:53;14.00;67.80
76168;DHT22;64927;48.214;16.378;2023-10-19T08:16:21;14.00;67.60
76168;DHT22;64927;48.214;16.378;2023-10-19T08:18:46;14.10;67.30
76168;DHT22;64927;48.214;16.378;2023-10-19T08:21:12;14.10;67.20
76168;DHT22;64927;48.214;16.378;2023-10-19T08:23:40;14.10;67.10
76168;DHT22;64927;48.214;16.378;2023-10-19T08:26:08;14.20;67.00
76168;DHT22;64927;48.214;16.378;2023-10-19T08:28:34;14.30;66.60
76168;DHT22;64927;48.214;16.378;2023-10-19T08:31:00;14.30;66.30
76168;DHT22;64927;48.214;16.378;2023-10-19T08:33:30;14.20;66.50
76168;DHT22;64927;48.214;16.378;2023-10-19T08:35:58;14.20;66.90
76168;DHT22;64927;48.214;16.378;2023-10-19T08:38:25;14.40;66.20
76168;DHT22;64927;48.214;16.378;2023-10-19T08:40:51;14.50;66.20
76168;DHT22;64927;48.214;16.378;2023-10-19T08:43:20;14.60;66.10
76168;DHT22;64927;48.214;16.378;2023-10-19T08:45:47;14.70;65.80
76168;DHT22;64927;48.214;16.378;2023-10-19T08:48:13;14.80;64.50
76168;DHT22;64927;48.214;16.378;2023-10-19T08:50:39;14.70;64.80
76168;DHT22;64927;48.214;16.378;2023-10-19T08:53:09;14.80;64.90
76168;DHT22;64927;48.214;16.378;2023-10-19T08:55:35;14.80;64.80
76168;DHT22;64927;48.214;16.378;2023-10-19T08:58:01;14.90;64.20
76168;DHT22;64927;48.214;16.378;2023-10-19T09:00:46;14.90;64.40
76168;DHT22;64927;48.214;16.378;2023-10-19T09:03:16;14.90;64.60
76168;DHT22;64927;48.214;16.378;2023-10-19T09:05:42;14.80;64.60
76168;DHT22;64927;48.214;16.378;2023-10-19T09:08:18;14.80;65.00
76168;DHT22;64927;48.214;16.378;2023-10-19T09:10:45;14.80;64.70
76168;DHT22;64927;48.214;16.378;2023-10-19T09:13:11;14.60;65.20
76168;DHT22;64927;48.214;16.378;2023-10-19T09:15:39;14.50;65.80
76168;DHT22;64927;48.214;16.378;2023-10-19T09:18:20;14.70;66.40
76168;DHT22;64927;48.214;16.378;2023-10-19T09:20:47;14.60;65.30
76168;DHT22;64927;48.214;16.378;2023-10-19T09:23:20;14.60;65.80
76168;DHT22;64927;48.214;16.378;2023-10-19T09:25:48;14.60;65.60
76168;DHT22;64927;48.214;16.378;2023-10-19T09:28:14;14.50;65.80
76168;DHT22;64927;48.214;16.378;2023-10-19T09:30:40;14.60;65.50
76168;DHT22;64927;48.214;16.378;2023-10-19T09:33:08;14.50;66.00
76168;DHT22;64927;48.214;16.378;2023-10-19T09:35:34;14.60;66.10
76168;DHT22;64927;48.214;16.378;2023-10-19T09:38:02;14.70;65.90
76168;DHT22;64927;48.214;16.378;2023-10-19T09:40:30;14.80;65.80
76168;DHT22;64927;48.214;16.378;2023-10-19T09:42:57;14.90;66.40
76168;DHT22;64927;48.214;16.378;2023-10-19T09:45:27;15.10;66.00
76168;DHT22;64927;48.214;16.378;2023-10-19T09:48:02;15.00;65.30
76168;DHT22;64927;48.214;16.378;2023-10-19T09:50:30;15.00;65.40
76168;DHT22;64927;48.214;16.378;2023-10-19T09:52:57;15.00;65.50
76168;DHT22;64927;48.214;16.378;2023-10-19T09:55:36;15.00;65.20
76168;DHT22;64927;48.214;16.378;2023-10-19T09:58:09;15.00;65.40
76168;DHT22;64927;48.214;16.378;2023-10-19T10:00:44;14.90;65.60
76168;DHT22;64927;48.214;16.378;2023-10-19T10:06:10;15.00;65.60
76168;DHT22;64927;48.214;16.378;2023-10-19T10:08:39;15.00;65.80
76168;DHT22;64927;48.214;16.378;2023-10-19T10:13:42;15.10;65.30
76168;DHT22;64927;48.214;16.378;2023-10-19T10:16:13;15.20;65.10
76168;DHT22;64927;48.214;16.378;2023-10-19T10:18:43;15.00;65.60
76168;DHT22;64927;48.214;16.378;2023-10-19T10:21:15;15.00;65.80
76168;DHT22;64927;48.214;16.378;2023-10-19T10:26:19;15.20;65.60
76168;DHT22;64927;48.214;16.378;2023-10-19T10:31:35;15.50;64.40
76168;DHT22;64927;48.214;16.378;2023-10-19T10:34:08;15.60;64.30
76168;DHT22;64927;48.214;16.378;2023-10-19T10:36:58;15.70;63.90
76168;DHT22;64927;48.214;16.378;2023-10-19T10:39:30;15.80;63.30
76168;DHT22;64927;48.214;16.378;2023-10-19T10:42:06;15.70;63.50
76168;DHT22;64927;48.214;16.378;2023-10-19T10:44:46;15.70;64.00
76168;DHT22;64927;48.214;16.378;2023-10-19T10:47:16;15.80;63.80
76168;DHT22;64927;48.214;16.378;2023-10-19T10:49:58;15.80;63.80
76168;DHT22;64927;48.214;16.378;2023-10-19T10:52:32;15.80;63.70
76168;DHT22;64927;48.214;16.378;2023-10-19T10:55:13;15.90;63.10
76168;DHT22;64927;48.214;16.378;2023-10-19T10:57:43;15.90;63.20
76168;DHT22;64927;48.214;16.378;2023-10-19T11:00:15;16.00;63.60
76168;DHT22;64927;48.214;16.378;2023-10-19T11:02:42;16.10;63.00
76168;DHT22;64927;48.214;16.378;2023-10-19T11:05:10;16.30;62.90
76168;DHT22;64927;48.214;16.378;2023-10-19T11:07:38;16.50;62.10
76168;DHT22;64927;48.214;16.378;2023-10-19T11:10:04;16.60;61.40
76168;DHT22;64927;48.214;16.378;2023-10-19T11:12:31;16.50;61.50
76168;DHT22;64927;48.214;16.378;2023-10-19T11:14:59;16.60;61.60
76168;DHT22;64927;48.214;16.378;2023-10-19T11:17:25;16.60;60.90
76168;DHT22;64927;48.214;16.378;2023-10-19T11:19:58;16.60;61.60
76168;DHT22;64927;48.214;16.378;2023-10-19T11:22:25;16.80;61.60
76168;DHT22;64927;48.214;16.378;2023-10-19T11:24:54;16.90;61.00
76168;DHT22;64927;48.214;16.378;2023-10-19T11:29:56;17.10;60.70
76168;DHT22;64927;48.214;16.378;2023-10-19T11:32:23;17.10;60.10
76168;DHT22;64927;48.214;16.378;2023-10-19T11:34:52;17.20;60.00
76168;DHT22;64927;48.214;16.378;2023-10-19T11:37:18;17.20;60.00
76168;DHT22;64927;48.214;16.378;2023-10-19T11:39:43;17.20;60.00
76168;DHT22;64927;48.214;16.378;2023-10-19T11:42:09;17.20;60.00
76168;DHT22;64927;48.214;16.378;2023-10-19T11:44:35;17.20;60.40
76168;DHT22;64927;48.214;16.378;2023-10-19T11:47:05;17.40;59.80
76168;DHT22;64927;48.214;16.378;2023-10-19T11:49:30;17.50;59.30
76168;DHT22;64927;48.214;16.378;2023-10-19T11:51:56;17.70;59.30
76168;DHT22;64927;48.214;16.378;2023-10-19T11:54:24;17.70;58.70
76168;DHT22;64927;48.214;16.378;2023-10-19T11:56:56;17.70;59.50
76168;DHT22;64927;48.214;16.378;2023-10-19T11:59:24;17.40;59.90
76168;DHT22;64927;48.214;16.378;2023-10-19T12:01:52;17.60;59.20
76168;DHT22;64927;48.214;16.378;2023-10-19T12:04:19;17.40;59.60
76168;DHT22;64927;48.214;16.378;2023-10-19T12:06:45;17.40;60.20
76168;DHT22;64927;48.214;16.378;2023-10-19T12:09:16;17.60;59.80
76168;DHT22;64927;48.214;16.378;2023-10-19T12:11:42;17.90;59.70
76168;DHT22;64927;48.214;16.378;2023-10-19T12:14:09;18.00;58.20
76168;DHT22;64927;48.214;16.378;2023-10-19T12:16:42;18.00;58.80
76168;DHT22;64927;48.214;16.378;2023-10-19T12:19:07;18.00;58.90
76168;DHT22;64927;48.214;16.378;2023-10-19T12:21:34;18.10;58.30
76168;DHT22;64927;48.214;16.378;2023-10-19T12:24:03;18.10;58.50
76168;DHT22;64927;48.214;16.378;2023-10-19T12:26:32;18.10;58.50
76168;DHT22;64927;48.214;16.378;2023-10-19T12:29:00;18.00;59.30
76168;DHT22;64927;48.214;16.378;2023-10-19T12:31:26;17.90;59.00
76168;DHT22;64927;48.214;16.378;2023-10-19T12:33:52;17.90;59.50
76168;DHT22;64927;48.214;16.378;2023-10-19T12:36:18;18.00;58.90
76168;DHT22;64927;48.214;16.378;2023-10-19T12:38:53;17.90;59.50
76168;DHT22;64927;48.214;16.378;2023-10-19T12:41:20;18.00;59.40
76168;DHT22;64927;48.214;16.378;2023-10-19T12:43:46;18.10;59.10
76168;DHT22;64927;48.214;16.378;2023-10-19T12:46:13;18.10;58.60
76168;DHT22;64927;48.214;16.378;2023-10-19T12:48:39;18.10;58.00
76168;DHT22;64927;48.214;16.378;2023-10-19T12:51:05;18.10;58.30
76168;DHT22;64927;48.214;16.378;2023-10-19T12:53:37;18.00;58.30
76168;DHT22;64927;48.214;16.378;2023-10-19T12:56:04;18.00;58.60
76168;DHT22;64927;48.214;16.378;2023-10-19T12:58:30;18.00;58.60
76168;DHT22;64927;48.214;16.378;2023-10-19T13:00:59;18.00;58.70
76168;DHT22;64927;48.214;16.378;2023-10-19T13:03:25;17.90;58.80
76168;DHT22;64927;48.214;16.378;2023-10-19T13:05:59;18.00;59.70
76168;DHT22;64927;48.214;16.378;2023-10-19T13:08:29;18.00;59.50
76168;DHT22;64927;48.214;16.378;2023-10-19T13:10:54;18.00;58.90
76168;DHT22;64927;48.214;16.378;2023-10-19T13:13:22;18.10;59.70
76168;DHT22;64927;48.214;16.378;2023-10-19T13:15:50;18.30;60.20
76168;DHT22;64927;48.214;16.378;2023-10-19T13:18:18;18.50;58.50
76168;DHT22;64927;48.214;16.378;2023-10-19T13:20:47;18.70;57.10
76168;DHT22;64927;48.214;16.378;2023-10-19T13:23:14;18.50;57.50
76168;DHT22;64927;48.214;16.378;2023-10-19T13:25:47;18.40;57.90
76168;DHT22;64927;48.214;16.378;2023-10-19T13:28:20;18.40;57.90
76168;DHT22;64927;48.214;16.378;2023-10-19T13:30:51;18.30;58.20
76168;DHT22;64927;48.214;16.378;2023-10-19T13:33:21;18.30;58.70
76168;DHT22;64927;48.214;16.378;2023-10-19T13:35:48;18.30;58.80
76168;DHT22;64927;48.214;16.378;2023-10-19T13:38:16;18.50;58.20
76168;DHT22;64927;48.214;16.378;2023-10-19T13:40:43;18.60;57.70
76168;DHT22;64927;48.214;16.378;2023-10-19T13:43:12;18.50;57.50
76168;DHT22;64927;48.214;16.378;2023-10-19T13:45:42;18.40;57.90
76168;DHT22;64927;48.214;16.378;2023-10-19T13:48:09;18.10;59.10
76168;DHT22;64927;48.214;16.378;2023-10-19T13:50:40;18.10;59.00
76168;DHT22;64927;48.214;16.378;2023-10-19T13:53:08;18.10;59.30
76168;DHT22;64927;48.214;16.378;2023-10-19T13:55:35;18.20;59.00
76168;DHT22;64927;48.214;16.378;2023-10-19T13:58:02;18.10;59.40
76168;DHT22;64927;48.214;16.378;2023-10-19T14:00:28;18.20;59.20
76168;DHT22;64927;48.214;16.378;2023-10-19T14:03:01;18.20;58.90
76168;DHT22;64927;48.214;16.378;2023-10-19T14:05:40;18.10;59.50
76168;DHT22;64927;48.214;16.378;2023-10-19T14:08:09;18.10;59.80
76168;DHT22;64927;48.214;16.378;2023-10-19T14:10:37;18.20;59.40
76168;DHT22;64927;48.214;16.378;2023-10-19T14:13:05;18.30;59.10
76168;DHT22;64927;48.214;16.378;2023-10-19T14:15:30;18.20;59.00
76168;DHT22;64927;48.214;16.378;2023-10-19T14:17:59;18.20;59.00
76168;DHT22;64927;48.214;16.378;2023-10-19T14:20:28;18.10;59.60
76168;DHT22;64927;48.214;16.378;2023-10-19T14:22:55;18.20;59.70
76168;DHT22;64927;48.214;16.378;2023-10-19T14:25:21;18.10;59.50
76168;DHT22;64927;48.214;16.378;2023-10-19T14:27:50;18.20;59.80
76168;DHT22;64927;48.214;16.378;2023-10-19T14:30:19;18.40;59.70
76168;DHT22;64927;48.214;16.378;2023-10-19T14:32:47;18.60;59.70
76168;DHT22;64927;48.214;16.378;2023-10-19T14:35:15;18.70;58.70
76168;DHT22;64927;48.214;16.378;2023-10-19T14:37:43;18.80;58.10
76168;DHT22;64927;48.214;16.378;2023-10-19T14:40:14;18.80;58.50
76168;DHT22;64927;48.214;16.378;2023-10-19T14:42:42;18.80;58.90
76168;DHT22;64927;48.214;16.378;2023-10-19T14:45:16;18.90;58.50
76168;DHT22;64927;48.214;16.378;2023-10-19T14:47:47;18.90;58.30
76168;DHT22;64927;48.214;16.378;2023-10-19T14:50:15;18.80;58.60
76168;DHT22;64927;48.214;16.378;2023-10-19T14:52:45;18.50;59.10
76168;DHT22;64927;48.214;16.378;2023-10-19T14:55:12;18.50;59.40
76168;DHT22;64927;48.214;16.378;2023-10-19T14:57:41;18.50;59.50
76168;DHT22;64927;48.214;16.378;2023-10-19T15:00:09;18.40;59.60
76168;DHT22;64927;48.214;16.378;2023-10-19T15:02:48;18.30;60.30
76168;DHT22;64927;48.214;16.378;2023-10-19T15:05:14;18.10;60.60
76168;DHT22;64927;48.214;16.378;2023-10-19T15:07:46;18.10;60.70
76168;DHT22;64927;48.214;16.378;2023-10-19T15:10:22;18.10;60.80
76168;DHT22;64927;48.214;16.378;2023-10-19T15:12:48;18.10;60.70
76168;DHT22;64927;48.214;16.378;2023-10-19T15:15:14;18.10;60.80
76168;DHT22;64927;48.214;16.378;2023-10-19T15:17:46;18.10;60.70
76168;DHT22;64927;48.214;16.378;2023-10-19T15:20:13;18.10;60.70
76168;DHT22;64927;48.214;16.378;2023-10-19T15:22:43;18.00;61.00
76168;DHT22;64927;48.214;16.378;2023-10-19T15:25:09;18.00;60.90
76168;DHT22;64927;48.214;16.378;2023-10-19T15:27:37;17.90;61.10
76168;DHT22;64927;48.214;16.378;2023-10-19T15:30:04;17.90;61.40
76168;DHT22;64927;48.214;16.378;2023-10-19T15:32:34;17.90;61.30
76168;DHT22;64927;48.214;16.378;2023-10-19T15:35:00;17.80;61.30
76168;DHT22;64927;48.214;16.378;2023-10-19T15:37:26;17.80;61.40
76168;DHT22;64927;48.214;16.378;2023-10-19T15:39:52;17.80;61.60
76168;DHT22;64927;48.214;16.378;2023-10-19T15:42:18;17.70;61.90